Time;durP1;ratioP1;P1;durP2;ratioP2;P2;SDS_P1;SDS_P2;PMS_P1;PMS_P2;Temp;Humidity;BMP_temperature;BMP_pressure;BME280_temperature;BME280_humidity;BME280_pressure;Samples;Min_cycle;Max_cycle;Signal;HPM_P1;HPM_P2
2021/08/03 00:02:02;;;;;;;12.33;8.40;;;;;;;;;;5098418;28;20448;-55
2021/08/03 00:04:36;;;;;;;5.10;4.60;;;;;;;;;;5099192;28;20440;-56
2021/08/03 00:07:03;;;;;;;6.47;5.37;;;;;;;;;;5099437;28;20452;-57
2021/08/03 00:09:32;;;;;;;18.00;13.07;;;;;;;;;;5099029;28;20462;-54
2021/08/03 00:12:00;;;;;;;20.70;14.97;;;;;;;;;;5098486;28;20503;-57
2021/08/03 00:14:28;;;;;;;135.30;91.43;;;;;;;;;;5099143;28;20467;-54
2021/08/03 00:16:58;;;;;;;44.47;29.43;;;;;;;;;;5097865;28;20451;-56
2021/08/03 00:19:41;;;;;;;73.00;48.60;;;;;;;;;;5098422;28;20432;-60
2021/08/03 00:22:09;;;;;;;13.60;9.60;;;;;;;;;;5098123;28;20474;-58
2021/08/03 00:24:39;;;;;;;18.37;12.47;;;;;;;;;;5099094;28;20447;-55
2021/08/03 00:27:22;;;;;;;45.73;32.27;;;;;;;;;;5099137;28;20502;-58
2021/08/03 00:29:49;;;;;;;58.07;35.13;;;;;;;;;;5098596;28;20456;-54
2021/08/03 00:32:19;;;;;;;7.93;6.60;;;;;;;;;;5098573;28;20475;-57
2021/08/03 00:35:09;;;;;;;100.73;62.97;;;;;;;;;;5099200;28;20694;-56
2021/08/03 00:37:37;;;;;;;99.40;59.47;;;;;;;;;;5095886;28;20536;-63
2021/08/03 00:40:05;;;;;;;106.63;66.43;;;;;;;;;;5098410;28;20464;-57
2021/08/03 00:42:32;;;;;;;18.20;10.37;;;;;;;;;;5098688;28;20801;-58
2021/08/03 00:45:00;;;;;;;7.73;5.17;;;;;;;;;;5098833;28;20452;-57
2021/08/03 00:47:46;;;;;;;34.20;21.60;;;;;;;;;;5098267;28;20420;-56
2021/08/03 00:50:15;;;;;;;107.77;62.93;;;;;;;;;;5096530;28;20444;-58
2021/08/03 00:52:43;;;;;;;79.53;48.67;;;;;;;;;;5097902;28;20483;-58
2021/08/03 00:55:22;;;;;;;28.20;18.57;;;;;;;;;;5098488;28;20444;-58
2021/08/03 00:57:50;;;;;;;31.20;21.13;;;;;;;;;;5097770;28;20440;-58
2021/08/03 01:00:18;;;;;;;9.57;6.70;;;;;;;;;;5098075;28;20467;-58
2021/08/03 01:02:45;;;;;;;9.90;7.13;;;;;;;;;;5097716;28;20424;-58
2021/08/03 01:05:13;;;;;;;13.17;8.30;;;;;;;;;;5097687;28;20463;-59
2021/08/03 01:07:44;;;;;;;9.57;7.37;;;;;;;;;;5097850;28;20456;-54
2021/08/03 01:10:18;;;;;;;39.13;26.47;;;;;;;;;;5097624;28;20481;-55
2021/08/03 01:12:49;;;;;;;30.50;22.10;;;;;;;;;;5097734;28;20479;-55
2021/08/03 01:15:18;;;;;;;46.77;28.70;;;;;;;;;;5097616;28;20444;-57
2021/08/03 01:17:55;;;;;;;33.77;20.50;;;;;;;;;;5097566;28;20433;-56
2021/08/03 01:20:25;;;;;;;15.37;11.77;;;;;;;;;;5097585;28;20456;-56
2021/08/03 01:23:08;;;;;;;23.80;16.47;;;;;;;;;;5097228;28;20440;-57
2021/08/03 01:25:43;;;;;;;12.67;7.17;;;;;;;;;;5077556;28;20447;-55
2021/08/03 01:31:41;;;;;;;14.03;9.70;;;;;;;;;;5097372;28;20411;-57
2021/08/03 01:34:11;;;;;;;21.80;15.80;;;;;;;;;;5095143;28;20542;-54
2021/08/03 01:36:41;;;;;;;14.27;7.57;;;;;;;;;;5097333;28;20498;-55
2021/08/03 01:39:29;;;;;;;23.60;14.67;;;;;;;;;;5097319;28;20444;-63
2021/08/03 01:41:57;;;;;;;11.93;8.23;;;;;;;;;;5097358;28;20478;-58
2021/08/03 01:44:24;;;;;;;15.93;9.27;;;;;;;;;;5096759;28;20475;-56
2021/08/03 01:46:54;;;;;;;62.50;40.33;;;;;;;;;;5097152;28;20679;-58
2021/08/03 01:49:24;;;;;;;22.53;14.57;;;;;;;;;;5096577;28;20443;-52
2021/08/03 01:51:52;;;;;;;27.33;19.87;;;;;;;;;;5096594;28;20488;-56
2021/08/03 01:54:20;;;;;;;33.00;25.40;;;;;;;;;;5096974;28;20925;-56
2021/08/03 01:56:49;;;;;;;31.40;19.47;;;;;;;;;;5097316;28;20478;-59
2021/08/03 01:59:17;;;;;;;25.60;17.53;;;;;;;;;;5096908;28;20444;-57
2021/08/03 02:02:07;;;;;;;25.37;18.03;;;;;;;;;;5097249;28;20509;-55
2021/08/03 02:04:38;;;;;;;40.57;27.40;;;;;;;;;;5097030;28;20497;-57
2021/08/03 02:07:06;;;;;;;32.13;19.80;;;;;;;;;;5097067;28;20485;-57
2021/08/03 02:09:51;;;;;;;30.00;19.80;;;;;;;;;;5096927;28;20482;-58
2021/08/03 02:12:19;;;;;;;24.50;14.20;;;;;;;;;;5096622;28;20478;-56
2021/08/03 02:14:47;;;;;;;32.23;17.07;;;;;;;;;;5097165;28;20480;-56
2021/08/03 02:17:18;;;;;;;24.57;14.03;;;;;;;;;;5096897;28;20680;-54
2021/08/03 02:19:46;;;;;;;18.90;11.27;;;;;;;;;;5096654;28;20447;-54
2021/08/03 02:22:14;;;;;;;16.00;9.13;;;;;;;;;;5096911;28;20494;-57
2021/08/03 02:27:45;;;;;;;8.80;7.10;;;;;;;;;;5096827;28;20438;-56
2021/08/03 02:30:13;;;;;;;14.93;8.13;;;;;;;;;;5096354;28;20459;-55
2021/08/03 02:32:43;;;;;;;10.93;8.10;;;;;;;;;;5098875;28;20498;-55
2021/08/03 02:35:14;;;;;;;14.10;7.93;;;;;;;;;;5096063;28;20440;-56
2021/08/03 02:38:09;;;;;;;9.97;8.83;;;;;;;;;;5096315;28;20533;-58
2021/08/03 02:40:37;;;;;;;9.03;7.10;;;;;;;;;;5096420;28;20448;-58
2021/08/03 02:43:05;;;;;;;9.20;7.40;;;;;;;;;;5096073;28;20452;-56
2021/08/03 02:45:57;;;;;;;9.60;7.50;;;;;;;;;;5096544;28;20627;-57
2021/08/03 02:48:25;;;;;;;17.27;6.60;;;;;;;;;;5096313;28;20492;-57
2021/08/03 02:50:54;;;;;;;11.40;7.30;;;;;;;;;;5096369;28;20456;-54
2021/08/03 02:53:35;;;;;;;7.47;6.63;;;;;;;;;;5096552;28;20492;-54
2021/08/03 02:56:04;;;;;;;8.03;5.67;;;;;;;;;;5096508;28;20466;-58
2021/08/03 02:58:34;;;;;;;12.77;6.87;;;;;;;;;;5096181;28;20474;-58
2021/08/03 03:01:23;;;;;;;10.53;7.00;;;;;;;;;;5096469;28;20456;-57
2021/08/03 03:03:52;;;;;;;9.93;5.87;;;;;;;;;;5096561;28;20475;-55
2021/08/03 03:06:23;;;;;;;10.30;6.67;;;;;;;;;;5096192;28;20471;-58
2021/08/03 03:08:50;;;;;;;16.50;8.03;;;;;;;;;;5095813;28;20473;-58
2021/08/03 03:11:19;;;;;;;8.87;7.70;;;;;;;;;;5096191;28;20452;-55
2021/08/03 03:13:49;;;;;;;7.97;6.60;;;;;;;;;;5095796;28;20487;-56
2021/08/03 03:16:17;;;;;;;10.50;7.60;;;;;;;;;;5096149;28;20463;-57
2021/08/03 03:18:45;;;;;;;9.83;7.30;;;;;;;;;;5096187;28;20447;-58
2021/08/03 03:21:38;;;;;;;11.07;6.30;;;;;;;;;;5095986;28;20464;-58
2021/08/03 03:24:07;;;;;;;12.83;7.13;;;;;;;;;;5095454;28;20474;-58
2021/08/03 03:26:36;;;;;;;11.20;7.10;;;;;;;;;;5095828;28;20452;-57
2021/08/03 03:29:12;;;;;;;12.30;7.57;;;;;;;;;;5095344;28;20432;-57
2021/08/03 03:31:41;;;;;;;9.23;6.77;;;;;;;;;;5095865;28;20444;-57
2021/08/03 03:34:10;;;;;;;10.83;8.00;;;;;;;;;;5095418;28;20556;-56
2021/08/03 03:37:02;;;;;;;9.43;7.10;;;;;;;;;;5095989;28;20480;-56
2021/08/03 03:39:31;;;;;;;10.63;8.03;;;;;;;;;;5095456;28;20444;-56
2021/08/03 03:42:05;;;;;;;10.47;7.33;;;;;;;;;;5095328;28;20460;-58
2021/08/03 03:44:35;;;;;;;11.33;7.87;;;;;;;;;;5095536;28;20455;-58
2021/08/03 03:47:19;;;;;;;14.70;6.90;;;;;;;;;;5094157;28;20530;-58
2021/08/03 03:50:02;;;;;;;7.70;6.10;;;;;;;;;;5095396;28;20452;-57
2021/08/03 03:52:35;;;;;;;9.47;7.03;;;;;;;;;;5094722;28;20487;-58
2021/08/03 03:55:04;;;;;;;9.50;7.83;;;;;;;;;;5095051;28;20452;-58
2021/08/03 03:58:03;;;;;;;11.90;6.60;;;;;;;;;;5095575;28;20436;-56
2021/08/03 04:00:31;;;;;;;7.87;6.83;;;;;;;;;;5095406;28;20809;-58
2021/08/03 04:02:58;;;;;;;8.60;7.47;;;;;;;;;;5095135;28;20493;-57
2021/08/03 04:05:53;;;;;;;10.47;7.80;;;;;;;;;;5095157;28;20441;-59
2021/08/03 04:08:22;;;;;;;12.17;7.67;;;;;;;;;;5095171;28;20474;-57
2021/08/03 04:10:52;;;;;;;7.90;7.03;;;;;;;;;;5095604;28;20486;-54
2021/08/03 04:13:30;;;;;;;10.23;7.33;;;;;;;;;;5098353;28;20515;-56
2021/08/03 04:15:58;;;;;;;11.63;7.10;;;;;;;;;;5098378;28;20440;-58
2021/08/03 04:18:25;;;;;;;11.37;7.40;;;;;;;;;;5098596;28;20474;-58
2021/08/03 04:21:24;;;;;;;8.93;6.33;;;;;;;;;;5099016;28;20489;-58
2021/08/03 04:23:51;;;;;;;7.67;6.87;;;;;;;;;;5098192;28;20490;-58
2021/08/03 04:26:20;;;;;;;10.83;7.90;;;;;;;;;;5098546;28;20455;-58
2021/08/03 04:28:48;;;;;;;8.63;7.23;;;;;;;;;;5098678;28;20490;-58
2021/08/03 04:31:15;;;;;;;11.00;7.50;;;;;;;;;;5098562;28;20471;-57
2021/08/03 04:33:50;;;;;;;13.40;7.30;;;;;;;;;;5098391;28;20479;-57
2021/08/03 04:36:17;;;;;;;7.60;6.60;;;;;;;;;;5097946;28;20439;-56
2021/08/03 04:38:45;;;;;;;9.63;7.50;;;;;;;;;;5098657;28;20440;-58
2021/08/03 04:41:19;;;;;;;9.67;7.20;;;;;;;;;;5096112;28;20486;-58
2021/08/03 04:43:48;;;;;;;8.77;7.07;;;;;;;;;;5083031;28;20523;-57
2021/08/03 04:46:19;;;;;;;10.30;7.10;;;;;;;;;;5096830;28;20483;-57
2021/08/03 04:48:46;;;;;;;6.93;6.23;;;;;;;;;;5077974;28;20445;-58
2021/08/03 04:51:14;;;;;;;14.10;7.83;;;;;;;;;;5085385;28;20448;-56
2021/08/03 04:53:42;;;;;;;19.13;7.70;;;;;;;;;;5094055;28;20499;-57
2021/08/03 04:56:29;;;;;;;9.10;7.00;;;;;;;;;;5098347;28;20486;-57
2021/08/03 04:58:59;;;;;;;7.53;6.27;;;;;;;;;;5099546;28;20443;-57
2021/08/03 05:01:27;;;;;;;8.53;6.40;;;;;;;;;;5095630;28;20462;-58
2021/08/03 05:04:03;;;;;;;7.93;6.20;;;;;;;;;;5093552;28;20432;-57
2021/08/03 05:09:32;;;;;;;10.13;5.80;;;;;;;;;;5097244;28;20440;-57
2021/08/03 05:12:10;;;;;;;12.70;6.97;;;;;;;;;;5117432;28;20462;-57
2021/08/03 05:14:39;;;;;;;11.73;5.73;;;;;;;;;;5116928;28;20501;-54
2021/08/03 05:17:07;;;;;;;7.60;6.53;;;;;;;;;;5097328;28;20432;-57
2021/08/03 05:19:36;;;;;;;7.33;6.40;;;;;;;;;;5117527;28;20447;-57
2021/08/03 05:22:05;;;;;;;7.70;6.10;;;;;;;;;;5116172;28;20527;-57
2021/08/03 05:24:32;;;;;;;9.50;7.60;;;;;;;;;;5116847;28;20446;-58
2021/08/03 05:27:17;;;;;;;10.60;7.00;;;;;;;;;;5116869;28;20439;-58
2021/08/03 05:29:48;;;;;;;10.17;6.93;;;;;;;;;;5116501;28;20551;-59
2021/08/03 05:32:19;;;;;;;10.87;7.67;;;;;;;;;;5086104;28;20449;-58
2021/08/03 05:35:21;;;;;;;8.87;6.47;;;;;;;;;;5136955;27;20480;-58
2021/08/03 05:37:49;;;;;;;10.03;7.77;;;;;;;;;;5137292;27;20463;-56
2021/08/03 05:40:19;;;;;;;10.47;7.43;;;;;;;;;;5115827;28;20485;-59
2021/08/03 05:43:00;;;;;;;10.20;6.70;;;;;;;;;;5095699;28;20478;-59
2021/08/03 05:45:28;;;;;;;9.07;6.37;;;;;;;;;;5108745;28;20487;-59
2021/08/03 05:47:56;;;;;;;7.97;6.27;;;;;;;;;;5117318;28;20450;-57
2021/08/03 05:50:24;;;;;;;10.87;8.03;;;;;;;;;;5116201;28;20457;-57
2021/08/03 05:52:54;;;;;;;14.20;7.20;;;;;;;;;;5115356;28;20513;-58
2021/08/03 05:55:21;;;;;;;7.77;5.70;;;;;;;;;;5115733;28;20535;-58
2021/08/03 05:57:50;;;;;;;16.47;7.10;;;;;;;;;;5115291;28;20455;-57
2021/08/03 06:00:18;;;;;;;9.60;7.80;;;;;;;;;;5115499;28;20453;-56
2021/08/03 06:02:46;;;;;;;11.67;7.60;;;;;;;;;;5115577;28;20451;-58
2021/08/03 06:05:32;;;;;;;11.00;7.90;;;;;;;;;;5101366;28;20468;-58
2021/08/03 06:08:01;;;;;;;8.07;6.40;;;;;;;;;;5115297;28;20447;-58
2021/08/03 06:10:38;;;;;;;11.03;6.93;;;;;;;;;;5098396;28;20771;-58
2021/08/03 06:13:35;;;;;;;14.03;7.90;;;;;;;;;;5116728;28;20479;-59
2021/08/03 06:16:04;;;;;;;12.10;8.87;;;;;;;;;;5116323;28;20474;-57
2021/08/03 06:18:40;;;;;;;10.43;7.50;;;;;;;;;;5116411;28;20443;-58
2021/08/03 06:21:08;;;;;;;10.43;7.50;;;;;;;;;;5116192;28;20450;-59
2021/08/03 06:23:38;;;;;;;7.10;6.30;;;;;;;;;;5115901;28;20618;-58
2021/08/03 06:29:17;;;;;;;9.83;6.87;;;;;;;;;;5112957;28;20488;-58
2021/08/03 06:31:45;;;;;;;9.20;7.30;;;;;;;;;;5115382;28;20550;-58
2021/08/03 06:34:22;;;;;;;9.70;6.50;;;;;;;;;;5113494;28;20541;-59
2021/08/03 06:36:49;;;;;;;7.77;6.97;;;;;;;;;;5114515;28;20448;-58
2021/08/03 06:39:16;;;;;;;9.50;6.60;;;;;;;;;;5114176;28;20454;-58
2021/08/03 06:41:58;;;;;;;8.67;7.00;;;;;;;;;;5114197;28;20459;-58
2021/08/03 06:44:32;;;;;;;8.43;7.23;;;;;;;;;;5114289;28;20439;-61
2021/08/03 06:47:00;;;;;;;11.77;7.67;;;;;;;;;;5115671;28;20447;-58
2021/08/03 06:49:34;;;;;;;13.93;7.77;;;;;;;;;;5115522;28;20500;-59
2021/08/03 06:52:05;;;;;;;11.50;7.53;;;;;;;;;;5115468;28;20439;-58
2021/08/03 06:54:56;;;;;;;11.53;7.67;;;;;;;;;;5114391;28;20546;-61
2021/08/03 06:57:27;;;;;;;12.20;8.00;;;;;;;;;;5094113;28;20448;-61
2021/08/03 06:59:56;;;;;;;12.20;8.43;;;;;;;;;;5103260;28;20519;-58
2021/08/03 07:02:30;;;;;;;17.93;8.13;;;;;;;;;;5115073;28;20481;-58
2021/08/03 07:05:00;;;;;;;10.87;8.00;;;;;;;;;;5114536;28;20443;-55
2021/08/03 07:07:27;;;;;;;10.70;7.47;;;;;;;;;;5112961;28;20455;-58
2021/08/03 07:09:59;;;;;;;9.27;8.03;;;;;;;;;;5114387;28;20489;-57
2021/08/03 07:12:27;;;;;;;11.03;8.67;;;;;;;;;;5113353;28;20423;-57
2021/08/03 07:15:02;;;;;;;9.60;7.20;;;;;;;;;;5110449;28;20586;-58
2021/08/03 07:17:32;;;;;;;10.40;8.00;;;;;;;;;;5115083;28;20446;-59
2021/08/03 07:20:02;;;;;;;13.40;9.53;;;;;;;;;;5115040;28;20469;-57
2021/08/03 07:22:34;;;;;;;10.23;7.83;;;;;;;;;;5113666;28;20630;-58
2021/08/03 07:25:03;;;;;;;16.33;8.80;;;;;;;;;;5113365;28;20454;-58
2021/08/03 07:27:30;;;;;;;10.00;7.10;;;;;;;;;;5113960;28;20447;-61
2021/08/03 07:30:05;;;;;;;10.30;6.90;;;;;;;;;;5114860;28;20481;-57
2021/08/03 07:32:34;;;;;;;10.63;7.10;;;;;;;;;;5114725;28;20447;-57
2021/08/03 07:35:04;;;;;;;9.23;7.73;;;;;;;;;;5115201;28;20514;-58
2021/08/03 07:37:36;;;;;;;7.10;6.37;;;;;;;;;;5113709;28;20481;-57
2021/08/03 07:40:04;;;;;;;8.87;7.10;;;;;;;;;;5114557;28;20560;-56
2021/08/03 07:42:31;;;;;;;8.87;7.27;;;;;;;;;;5113923;28;20466;-54
2021/08/03 07:44:59;;;;;;;10.23;7.17;;;;;;;;;;5115199;28;20493;-56
2021/08/03 07:47:31;;;;;;;7.83;6.07;;;;;;;;;;5118002;28;20463;-57
2021/08/03 07:49:59;;;;;;;6.60;6.00;;;;;;;;;;5116978;28;20567;-58
2021/08/03 07:52:29;;;;;;;8.60;6.87;;;;;;;;;;5118319;28;20485;-58
2021/08/03 07:54:56;;;;;;;8.13;6.40;;;;;;;;;;5117419;28;20481;-57
2021/08/03 07:57:24;;;;;;;6.90;5.70;;;;;;;;;;5119037;28;20421;-57
2021/08/03 07:59:56;;;;;;;16.07;6.63;;;;;;;;;;5118543;28;20449;-58
2021/08/03 08:02:26;;;;;;;11.27;6.30;;;;;;;;;;5118876;28;20442;-56
2021/08/03 08:04:53;;;;;;;7.03;6.33;;;;;;;;;;5118441;28;20468;-58
2021/08/03 08:07:28;;;;;;;7.70;6.27;;;;;;;;;;5119240;28;20487;-59
2021/08/03 08:09:57;;;;;;;8.80;6.73;;;;;;;;;;5119651;28;20488;-55
2021/08/03 08:12:27;;;;;;;8.53;6.63;;;;;;;;;;5118991;28;20483;-57
2021/08/03 08:14:56;;;;;;;7.67;6.30;;;;;;;;;;5118397;28;20498;-58
2021/08/03 08:17:24;;;;;;;8.57;6.47;;;;;;;;;;5118324;28;20510;-58
2021/08/03 08:19:58;;;;;;;9.80;6.40;;;;;;;;;;5100373;28;20453;-55
2021/08/03 08:22:25;;;;;;;9.03;7.03;;;;;;;;;;5115780;28;20490;-57
2021/08/03 08:24:53;;;;;;;7.30;6.27;;;;;;;;;;5118752;28;20448;-58
2021/08/03 08:27:25;;;;;;;8.83;6.73;;;;;;;;;;5117738;28;20490;-58
2021/08/03 08:29:53;;;;;;;10.97;7.87;;;;;;;;;;5118169;28;20481;-57
2021/08/03 08:32:23;;;;;;;7.63;6.30;;;;;;;;;;5117656;28;20526;-57
2021/08/03 08:34:57;;;;;;;7.93;6.60;;;;;;;;;;5117349;28;20489;-58
2021/08/03 08:37:25;;;;;;;7.87;6.60;;;;;;;;;;5117132;28;20452;-56
2021/08/03 08:40:01;;;;;;;10.47;7.17;;;;;;;;;;5117222;28;20481;-60
2021/08/03 08:42:31;;;;;;;10.20;7.00;;;;;;;;;;5117980;28;20462;-58
2021/08/03 08:45:00;;;;;;;9.13;7.13;;;;;;;;;;5117700;28;20438;-57
2021/08/03 08:47:30;;;;;;;8.60;7.07;;;;;;;;;;5117202;28;20447;-57
2021/08/03 08:50:02;;;;;;;10.87;6.53;;;;;;;;;;5117045;28;20446;-57
2021/08/03 08:52:30;;;;;;;9.20;6.87;;;;;;;;;;5117102;28;20464;-61
2021/08/03 08:54:59;;;;;;;8.00;7.10;;;;;;;;;;5116738;28;20484;-58
2021/08/03 08:57:26;;;;;;;9.73;7.20;;;;;;;;;;5116832;28;20463;-58
2021/08/03 09:00:19;;;;;;;9.63;8.63;;;;;;;;;;5116742;28;20496;-55
2021/08/03 09:02:51;;;;;;;11.70;7.40;;;;;;;;;;5116425;28;20471;-56
2021/08/03 09:05:18;;;;;;;9.80;7.77;;;;;;;;;;5116661;28;20440;-57
2021/08/03 09:08:07;;;;;;;11.80;8.97;;;;;;;;;;5116948;28;20437;-58
2021/08/03 09:16:29;;;;;;;14.77;7.40;;;;;;;;;;5116777;28;20443;-58
2021/08/03 09:18:58;;;;;;;10.13;7.60;;;;;;;;;;5116882;28;20478;-56
2021/08/03 09:21:27;;;;;;;8.20;5.90;;;;;;;;;;5116699;28;20542;-58
2021/08/03 09:23:58;;;;;;;7.00;5.30;;;;;;;;;;5117017;28;20481;-58
2021/08/03 09:26:47;;;;;;;9.30;6.67;;;;;;;;;;5117560;28;20443;-57
2021/08/03 09:29:19;;;;;;;9.67;8.50;;;;;;;;;;5116373;28;20454;-58
2021/08/03 09:31:53;;;;;;;7.97;6.30;;;;;;;;;;5116547;28;20459;-56
2021/08/03 09:34:34;;;;;;;9.00;6.63;;;;;;;;;;5116342;28;20466;-58
2021/08/03 09:37:02;;;;;;;8.20;6.30;;;;;;;;;;5115584;28;20464;-56
2021/08/03 09:39:43;;;;;;;10.47;7.00;;;;;;;;;;5116377;28;20460;-57
2021/08/03 09:42:12;;;;;;;12.83;8.70;;;;;;;;;;5115747;28;20466;-57
2021/08/03 09:44:47;;;;;;;9.67;7.40;;;;;;;;;;5116444;28;20416;-58
2021/08/03 09:50:20;;;;;;;15.20;7.20;;;;;;;;;;5116302;28;20422;-58
2021/08/03 09:52:52;;;;;;;11.53;8.60;;;;;;;;;;5115888;28;20690;-58
2021/08/03 09:55:49;;;;;;;11.50;7.90;;;;;;;;;;5116539;28;20487;-58
2021/08/03 09:58:22;;;;;;;9.70;8.00;;;;;;;;;;5115829;28;20459;-57
2021/08/03 10:01:30;;;;;;;9.80;7.90;;;;;;;;;;5116164;28;20439;-66
2021/08/03 10:03:58;;;;;;;14.43;10.13;;;;;;;;;;5014861;28;20440;-57
2021/08/03 10:06:29;;;;;;;9.87;7.83;;;;;;;;;;5014968;28;20480;-55
2021/08/03 10:09:21;;;;;;;10.17;8.80;;;;;;;;;;5015163;28;20475;-61
2021/08/03 10:11:49;;;;;;;10.60;8.80;;;;;;;;;;5054649;28;20473;-55
2021/08/03 10:14:17;;;;;;;9.20;8.13;;;;;;;;;;5116666;28;20466;-58
2021/08/03 10:19:48;;;;;;;13.60;8.80;;;;;;;;;;5116765;28;20407;-60
2021/08/03 10:22:23;;;;;;;12.80;6.97;;;;;;;;;;5116200;28;20514;-58
2021/08/03 10:27:55;;;;;;;6.90;6.17;;;;;;;;;;5096292;28;20447;-61
2021/08/03 10:30:37;;;;;;;8.07;7.00;;;;;;;;;;5095669;28;20433;-58
2021/08/03 10:33:39;;;;;;;10.37;8.40;;;;;;;;;;5094393;28;20495;-56
2021/08/03 10:36:09;;;;;;;8.17;6.90;;;;;;;;;;5092780;28;20483;-58
2021/08/03 10:39:05;;;;;;;8.50;6.80;;;;;;;;;;5096084;28;20505;-58
2021/08/03 10:41:53;;;;;;;8.13;6.03;;;;;;;;;;5095522;28;20488;-57
2021/08/03 10:44:37;;;;;;;8.53;6.20;;;;;;;;;;5094767;28;20469;-57
2021/08/03 10:47:04;;;;;;;7.07;6.20;;;;;;;;;;5096309;28;20442;-53
2021/08/03 10:49:47;;;;;;;10.90;6.40;;;;;;;;;;5093704;28;20447;-57
2021/08/03 10:52:43;;;;;;;7.80;5.93;;;;;;;;;;5084719;28;20448;-58
2021/08/03 10:55:31;;;;;;;9.60;7.50;;;;;;;;;;5074176;28;20952;-57
2021/08/03 10:58:18;;;;;;;7.27;6.00;;;;;;;;;;5075298;28;20459;-58
2021/08/03 11:00:45;;;;;;;8.40;6.20;;;;;;;;;;5074721;28;20462;-57
2021/08/03 11:03:30;;;;;;;9.73;6.27;;;;;;;;;;5074190;28;20419;-59
2021/08/03 11:06:21;;;;;;;8.23;6.77;;;;;;;;;;5087557;28;20447;-56
2021/08/03 11:08:49;;;;;;;7.83;6.40;;;;;;;;;;5093439;28;20459;-58
2021/08/03 11:11:28;;;;;;;9.97;6.23;;;;;;;;;;5095158;28;20497;-57
2021/08/03 11:13:56;;;;;;;7.50;5.97;;;;;;;;;;5093947;28;20459;-55
2021/08/03 11:16:54;;;;;;;8.20;6.30;;;;;;;;;;5094441;28;20492;-58
2021/08/03 11:19:36;;;;;;;8.40;6.27;;;;;;;;;;5094772;28;20469;-55
2021/08/03 11:22:08;;;;;;;7.73;6.40;;;;;;;;;;5098630;28;20463;-57
2021/08/03 11:24:59;;;;;;;9.80;5.73;;;;;;;;;;5098374;28;20463;-56
2021/08/03 11:27:29;;;;;;;8.90;5.77;;;;;;;;;;5078643;28;20551;-56
2021/08/03 11:29:56;;;;;;;7.13;5.40;;;;;;;;;;5078390;28;20460;-58
2021/08/03 11:32:36;;;;;;;8.33;4.80;;;;;;;;;;5078581;28;20451;-57
2021/08/03 11:35:04;;;;;;;8.20;5.53;;;;;;;;;;5078555;28;20534;-56
2021/08/03 11:37:40;;;;;;;5.23;3.93;;;;;;;;;;5078438;28;20437;-57
2021/08/03 11:40:10;;;;;;;7.83;4.90;;;;;;;;;;5078329;28;20460;-57
2021/08/03 11:42:41;;;;;;;11.73;7.67;;;;;;;;;;5097052;28;20452;-55
2021/08/03 11:45:10;;;;;;;4.03;3.10;;;;;;;;;;5098210;28;20492;-58
2021/08/03 11:47:41;;;;;;;4.63;3.40;;;;;;;;;;5098069;28;20451;-58
2021/08/03 11:50:09;;;;;;;5.43;3.77;;;;;;;;;;5098577;28;20459;-57
2021/08/03 11:52:36;;;;;;;5.83;3.90;;;;;;;;;;5098758;28;20464;-62
2021/08/03 11:55:21;;;;;;;5.63;3.80;;;;;;;;;;5098165;28;20522;-57
2021/08/03 11:57:55;;;;;;;4.97;3.67;;;;;;;;;;5098319;28;20660;-58
2021/08/03 12:00:53;;;;;;;6.73;3.90;;;;;;;;;;5097760;28;20452;-56
2021/08/03 12:03:32;;;;;;;3.80;2.57;;;;;;;;;;5099180;28;20443;-60
2021/08/03 12:06:07;;;;;;;5.30;2.87;;;;;;;;;;5097925;28;20439;-58
2021/08/03 12:08:51;;;;;;;4.07;3.00;;;;;;;;;;5098823;28;20511;-56
2021/08/03 12:14:21;;;;;;;6.07;4.30;;;;;;;;;;5101622;28;20506;-57
2021/08/03 12:16:50;;;;;;;5.20;3.37;;;;;;;;;;5098361;28;20440;-57
2021/08/03 12:19:49;;;;;;;6.30;4.90;;;;;;;;;;5098122;28;20474;-55
2021/08/03 12:22:29;;;;;;;5.70;4.33;;;;;;;;;;5102465;28;20529;-58
2021/08/03 12:24:58;;;;;;;3.20;2.20;;;;;;;;;;5118821;28;20457;-58
2021/08/03 12:27:25;;;;;;;3.90;3.00;;;;;;;;;;5118032;28;20447;-57
2021/08/03 12:30:04;;;;;;;5.97;2.90;;;;;;;;;;5118469;28;20435;-61
2021/08/03 12:35:41;;;;;;;3.80;2.90;;;;;;;;;;5118522;28;20475;-55
2021/08/03 12:41:36;;;;;;;3.43;2.60;;;;;;;;;;5117954;28;20409;-58
2021/08/03 12:44:18;;;;;;;3.80;3.33;;;;;;;;;;5118008;28;20455;-56
2021/08/03 12:49:53;;;;;;;3.63;2.20;;;;;;;;;;5115473;28;20439;-58
2021/08/03 12:52:24;;;;;;;3.93;2.03;;;;;;;;;;5118001;28;20484;-56
2021/08/03 12:54:58;;;;;;;3.73;2.40;;;;;;;;;;5117851;28;20447;-58
2021/08/03 12:57:50;;;;;;;3.80;3.00;;;;;;;;;;5118321;28;20494;-57
2021/08/03 13:00:31;;;;;;;2.90;2.20;;;;;;;;;;5093646;28;20443;-58
2021/08/03 13:03:11;;;;;;;3.40;2.37;;;;;;;;;;5117574;28;20507;-57
2021/08/03 13:05:38;;;;;;;5.40;2.10;;;;;;;;;;5117556;28;20447;-53
2021/08/03 13:08:06;;;;;;;3.00;2.00;;;;;;;;;;5117306;28;20451;-56
2021/08/03 13:10:43;;;;;;;3.90;2.43;;;;;;;;;;5116975;28;20455;-58
2021/08/03 13:13:10;;;;;;;5.47;3.17;;;;;;;;;;5115027;28;20521;-57
2021/08/03 13:15:40;;;;;;;3.40;2.10;;;;;;;;;;5117317;28;20986;-56
2021/08/03 13:18:12;;;;;;;4.00;2.53;;;;;;;;;;5117049;28;20451;-61
2021/08/03 13:20:44;;;;;;;10.30;5.80;;;;;;;;;;5116979;28;20460;-58
2021/08/03 13:23:12;;;;;;;8.13;4.10;;;;;;;;;;5117099;28;20550;-61
2021/08/03 13:26:06;;;;;;;4.97;2.70;;;;;;;;;;5117172;28;20472;-57
2021/08/03 13:28:33;;;;;;;6.53;3.70;;;;;;;;;;5117355;28;20455;-59
2021/08/03 13:31:00;;;;;;;3.50;2.27;;;;;;;;;;5111392;28;20459;-58
2021/08/03 13:33:40;;;;;;;3.20;2.17;;;;;;;;;;5116907;28;20440;-59
2021/08/03 13:36:08;;;;;;;3.30;2.03;;;;;;;;;;5116306;28;20505;-57
2021/08/03 13:38:37;;;;;;;18.33;9.27;;;;;;;;;;5116815;28;20448;-56
2021/08/03 13:44:08;;;;;;;3.10;2.00;;;;;;;;;;5096473;28;20410;-53
2021/08/03 13:46:37;;;;;;;12.50;9.30;;;;;;;;;;5110560;28;20450;-57
2021/08/03 13:49:23;;;;;;;151.37;101.60;;;;;;;;;;5117584;28;20466;-63
2021/08/03 13:51:54;;;;;;;43.30;29.70;;;;;;;;;;5117651;28;20443;-55
2021/08/03 13:54:29;;;;;;;3.33;1.97;;;;;;;;;;5092666;28;20475;-56
2021/08/03 13:56:58;;;;;;;36.30;25.00;;;;;;;;;;5099026;28;20496;-57
2021/08/03 13:59:25;;;;;;;2.97;2.00;;;;;;;;;;5097263;28;20454;-56
2021/08/03 14:01:55;;;;;;;3.27;1.90;;;;;;;;;;5096887;28;20497;-57
2021/08/03 14:04:36;;;;;;;6.30;4.90;;;;;;;;;;5063804;28;20436;-56
2021/08/03 14:07:19;;;;;;;19.97;13.17;;;;;;;;;;5097494;28;20512;-55
2021/08/03 14:09:47;;;;;;;19.40;14.33;;;;;;;;;;5108148;28;20455;-58
2021/08/03 14:12:14;;;;;;;12.17;10.40;;;;;;;;;;5108522;28;20475;-57
2021/08/03 14:17:48;;;;;;;6.97;4.60;;;;;;;;;;5113009;28;20473;-54
2021/08/03 14:23:02;;;;;;;3.60;2.43;;;;;;;;;;5117096;28;20461;-54
2021/08/03 14:25:30;;;;;;;7.53;4.50;;;;;;;;;;5117372;28;20439;-56
2021/08/03 14:28:06;;;;;;;4.20;2.70;;;;;;;;;;5117318;28;20436;-55
2021/08/03 14:36:45;;;;;;;5.80;3.23;;;;;;;;;;5113432;28;20515;-57
2021/08/03 14:39:33;;;;;;;8.17;2.53;;;;;;;;;;5117301;28;20452;-56
2021/08/03 14:42:05;;;;;;;5.00;3.00;;;;;;;;;;5100590;28;20471;-55
2021/08/03 14:45:04;;;;;;;5.73;3.97;;;;;;;;;;5114438;28;20494;-56
2021/08/03 14:47:35;;;;;;;4.10;2.27;;;;;;;;;;5112708;28;20462;-55
2021/08/03 14:50:06;;;;;;;3.40;2.20;;;;;;;;;;5115441;28;20449;-57
2021/08/03 14:52:36;;;;;;;5.37;2.80;;;;;;;;;;5130545;28;20465;-54
2021/08/03 14:55:03;;;;;;;6.83;3.00;;;;;;;;;;5132601;28;20434;-53
2021/08/03 14:57:31;;;;;;;5.00;2.83;;;;;;;;;;5136463;28;20452;-57
2021/08/03 15:00:08;;;;;;;4.87;3.30;;;;;;;;;;5136868;28;20458;-56
2021/08/03 15:02:53;;;;;;;6.10;2.97;;;;;;;;;;5136654;28;20462;-55
2021/08/03 15:05:22;;;;;;;5.53;3.90;;;;;;;;;;5118997;28;20471;-56
2021/08/03 15:07:50;;;;;;;7.70;4.00;;;;;;;;;;5116536;28;20502;-56
2021/08/03 15:10:21;;;;;;;7.80;4.23;;;;;;;;;;5116534;28;20497;-57
2021/08/03 15:12:48;;;;;;;5.77;3.20;;;;;;;;;;5116788;28;20435;-55
2021/08/03 15:15:19;;;;;;;4.43;3.10;;;;;;;;;;5116446;28;20462;-56
2021/08/03 15:18:02;;;;;;;4.17;3.40;;;;;;;;;;5114306;28;20546;-57
2021/08/03 15:20:31;;;;;;;6.23;3.17;;;;;;;;;;5116562;28;20439;-57
2021/08/03 15:23:03;;;;;;;5.30;4.10;;;;;;;;;;5115852;28;20443;-57
2021/08/03 15:28:53;;;;;;;7.93;5.20;;;;;;;;;;5118694;28;20550;-58
2021/08/03 15:31:28;;;;;;;10.50;8.03;;;;;;;;;;5093055;28;20472;-57
2021/08/03 15:34:00;;;;;;;4.30;3.10;;;;;;;;;;5094631;28;20520;-58
2021/08/03 15:36:31;;;;;;;13.83;8.53;;;;;;;;;;5109907;28;20495;-56
2021/08/03 15:39:06;;;;;;;10.97;6.43;;;;;;;;;;5114877;28;20535;-55
2021/08/03 15:41:35;;;;;;;18.00;12.30;;;;;;;;;;5115325;28;20464;-57
2021/08/03 15:44:15;;;;;;;23.33;18.17;;;;;;;;;;5135597;28;20445;-57
2021/08/03 15:46:51;;;;;;;11.17;7.70;;;;;;;;;;5125886;28;20545;-55
2021/08/03 15:49:23;;;;;;;8.50;3.03;;;;;;;;;;5115042;28;20473;-57
2021/08/03 15:51:51;;;;;;;7.07;5.07;;;;;;;;;;5115690;28;20454;-57
2021/08/03 15:54:35;;;;;;;13.03;9.33;;;;;;;;;;5100639;28;20452;-56
2021/08/03 15:57:03;;;;;;;5.97;4.60;;;;;;;;;;5094748;28;20560;-58
2021/08/03 15:59:34;;;;;;;10.87;7.83;;;;;;;;;;5096976;28;20519;-55
2021/08/03 16:02:03;;;;;;;5.40;3.90;;;;;;;;;;5114806;28;20523;-57
2021/08/03 16:04:31;;;;;;;12.93;7.20;;;;;;;;;;5129323;28;20457;-59
2021/08/03 16:07:29;;;;;;;11.77;9.43;;;;;;;;;;5117500;28;20463;-58
2021/08/03 16:12:53;;;;;;;8.80;5.67;;;;;;;;;;5116547;28;20439;-56
2021/08/03 16:15:23;;;;;;;23.57;16.63;;;;;;;;;;5114334;28;20481;-57